M I D A S
Marine Information and Data Acquisition System
Tripno 2107 of the Zeeleeuw from 2011-05-23 06:25:37 to 2011-05-23 16:36:08
Back to CruiseResearch ActivitiesStationsMapUnderway DataData graphs

EquipmentUnitsComment
TimeDGPSUTC
LatitudeDGPSDM.mWGS84
LongitudeDGPSDM.mWGS84
TemperatureSBE03/SBE38deg celciusITS90
ConductivitySBE21S/mITS90
SalinitySBE21 Practical Salinity Units
ChlorophylAChelsea fluorimeterµg/lCalibrated in Aceton
Missing or incorrect values are displayed as -999
Sea surface data collected by the RV Zeeleeuw from 2011-05-23 06:20:28 to 2011-05-23 16:52:40
Time Latitude Longitude Temperature Conductivity Salinity ChlorophylA
2011-05-23 06:21:36 51°13.665 2°55.912 18.9467 0.008989 0.051011 -3.020363
2011-05-23 06:22:35 51°13.69 2°55.812 18.4343 0.008989 0.051019 -3.020363
2011-05-23 06:23:33 51°13.695 2°55.741 16.1174 4.072294 31.108519 -3.020363
2011-05-23 06:24:33 51°13.698 2°55.73 15.9239 4.017688 31.468287 -3.020363
2011-05-23 06:25:32 51°13.733 2°55.718 15.8736 4.02339 31.641866 -3.020363
2011-05-23 06:26:32 51°13.813 2°55.644 15.7897 4.01251 31.612197 -3.020363
2011-05-23 06:27:32 51°13.938 2°55.558 15.742 4.016553 31.711146 -3.020363
2011-05-23 06:28:33 51°14.085 2°55.452 15.7346 4.007848 31.672531 -3.020363
2011-05-23 06:29:32 51°14.233 2°55.343 15.7104 4.020906 31.799429 -3.020363
2011-05-23 06:30:35 51°14.389 2°55.18 15.6678 4.017694 31.795477 -3.020363
2011-05-23 06:31:34 51°14.559 2°55.015 15.5669 4.051793 32.159178 -3.020363
2011-05-23 06:32:32 51°14.758 2°54.904 15.4964 4.077394 32.439174 -3.020363
2011-05-23 06:33:33 51°14.974 2°54.799 15.373 4.11243 32.811178 -3.020363
2011-05-23 06:34:32 51°15.184 2°54.701 15.16 4.160739 33.387518 -3.020363
2011-05-23 06:35:32 51°15.402 2°54.618 15.0309 4.160119 33.524851 -3.020363
2011-05-23 06:36:32 51°15.613 2°54.515 15.0664 4.156492 33.592856 -3.020363
2011-05-23 06:37:32 51°15.827 2°54.429 15.0653 4.145814 33.458954 -3.020363
2011-05-23 06:38:33 51°16.004 2°54.327 15.0641 4.145607 33.463453 -3.020363
2011-05-23 06:39:32 51°16.124 2°54.267 15.0458 4.144467 33.455296 -3.020363
2011-05-23 06:40:33 51°16.224 2°54.244 15.0206 4.145607 33.483988 -3.020363
2011-05-23 06:41:32 51°16.274 2°54.239 15.017 4.15162 33.558825 -3.020363
2011-05-23 06:42:33 51°16.282 2°54.263 15.0195 4.157944 33.618057 -3.020363
2011-05-23 06:43:33 51°16.292 2°54.287 15.0193 4.160536 33.640751 -3.020363
2011-05-23 06:44:32 51°16.304 2°54.311 15.0199 4.161365 33.648241 -3.020363
2011-05-23 06:45:32 51°16.316 2°54.334 15.0264 4.161883 33.652922 -3.020363
2011-05-23 06:46:32 51°16.329 2°54.357 15.0256 4.16292 33.658721 -3.020363
2011-05-23 06:47:32 51°16.342 2°54.379 15.0259 4.163231 33.662243 -3.020363
2011-05-23 06:48:32 51°16.356 2°54.398 15.0262 4.163438 33.663403 -3.020363
2011-05-23 06:49:32 51°16.37 2°54.419 15.0255 4.163438 33.664116 -3.020363
2011-05-23 06:50:32 51°16.383 2°54.442 15.0238 4.163542 33.663626 -3.020363
2011-05-23 06:51:32 51°16.401 2°54.459 15.0253 4.163438 33.664116 -3.020363
2011-05-23 06:52:32 51°16.422 2°54.423 15.0322 4.163542 33.664339 -3.020363
2011-05-23 06:53:32 51°16.404 2°54.374 15.0485 4.163334 33.650352 -3.020363
2011-05-23 06:54:32 51°16.304 2°54.292 15.0394 4.161157 33.611489 -3.020363
2011-05-23 06:55:32 51°16.202 2°54.124 15.0281 4.163542 33.647238 -3.020363
2011-05-23 06:56:33 51°16.192 2°54.033 15.0233 4.164786 33.667732 -3.020363
2011-05-23 06:57:32 51°16.209 2°54.032 15.0226 4.164993 33.675308 -3.020363
2011-05-23 06:58:32 51°16.227 2°54.041 15.0362 4.165615 33.67736 -3.020363
2011-05-23 06:59:32 51°16.243 2°54.054 15.053 4.166444 33.669167 -3.020363
2011-05-23 07:00:32 51°16.256 2°54.068 15.0404 4.167792 33.669932 -3.020363
2011-05-23 07:01:32 51°16.27 2°54.083 15.0331 4.166859 33.672197 -3.020363
2011-05-23 07:02:32 51°16.283 2°54.1 15.034 4.16603 33.672549 -3.020363
2011-05-23 07:03:32 51°16.296 2°54.116 15.0375 4.166133 33.674198 -3.020363
2011-05-23 07:04:32 51°16.309 2°54.134 15.0361 4.166444 33.674155 -3.020363
2011-05-23 07:05:32 51°16.321 2°54.15 15.0447 4.167066 33.676207 -3.020363
2011-05-23 07:06:32 51°16.334 2°54.166 15.0518 4.167585 33.67661 -3.020363
2011-05-23 07:07:32 51°16.345 2°54.184 15.0563 4.167999 33.67394 -3.020363
2011-05-23 07:08:32 51°16.356 2°54.203 15.0534 4.168206 33.672962 -3.020363
2011-05-23 07:09:32 51°16.366 2°54.222 15.0551 4.168103 33.672026 -3.020363
2011-05-23 07:10:32 51°16.377 2°54.241 15.0578 4.168206 33.670825 -3.020363
2011-05-23 07:11:32 51°16.387 2°54.259 15.0589 4.168414 33.671272 -3.020363
2011-05-23 07:12:32 51°16.396 2°54.279 15.0573 4.168414 33.671272 -3.020363
2011-05-23 07:13:32 51°16.406 2°54.297 15.0533 4.16831 33.671048 -3.020363
2011-05-23 07:14:32 51°16.416 2°54.316 15.0588 4.168206 33.671537 -3.020363
2011-05-23 07:15:33 51°16.427 2°54.334 15.0546 4.16831 33.671048 -3.020363
2011-05-23 07:16:32 51°16.448 2°54.34 15.0569 4.16831 33.672473 -3.020363
2011-05-23 07:17:33 51°16.51 2°54.348 15.0551 4.168206 33.667977 -3.020363
2011-05-23 07:18:32 51°16.575 2°54.264 15.0524 4.16717 33.662895 -3.020363
2011-05-23 07:19:32 51°16.666 2°54.036 14.9612 4.168829 33.686414 -3.020363
2011-05-23 07:20:32 51°16.765 2°53.744 14.9009 4.169659 33.787578 -3.020363
2011-05-23 07:21:32 51°16.873 2°53.447 14.8362 4.166342 33.785523 -3.020363
2011-05-23 07:22:32 51°16.998 2°53.174 14.8347 4.16116 33.793153 -3.020363
2011-05-23 07:23:32 51°17.102 2°52.875 14.8611 4.156909 33.750286 -3.020363
2011-05-23 07:24:33 51°17.213 2°52.572 14.8794 4.109432 33.292493 -3.020363
2011-05-23 07:25:33 51°17.349 2°52.303 14.8968 4.151311 33.651539 -3.020363
2011-05-23 07:26:32 51°17.51 2°52.069 14.8671 4.140634 33.577005 -3.020363
2011-05-23 07:27:32 51°17.665 2°51.824 14.8009 4.1425 33.616065 -3.020363
2011-05-23 07:28:32 51°17.828 2°51.588 14.771 4.138354 33.632892 -3.020363
2011-05-23 07:29:32 51°17.999 2°51.368 14.7382 4.134416 33.622233 -3.020363
2011-05-23 07:30:32 51°18.167 2°51.136 14.7315 4.129751 33.603537 -3.020363
2011-05-23 07:31:32 51°18.339 2°50.92 14.743 4.129233 33.600262 -3.020363
2011-05-23 07:32:32 51°18.454 2°50.852 14.7472 4.13058 33.601744 -3.020363
2011-05-23 07:33:32 51°18.479 2°50.858 14.7484 4.133068 33.620756 -3.020363
2011-05-23 07:34:32 51°18.489 2°50.871 14.752 4.132653 33.618425 -3.020363
2011-05-23 07:35:33 51°18.502 2°50.885 14.7459 4.133586 33.620441 -3.020363
2011-05-23 07:36:32 51°18.514 2°50.897 14.7439 4.133897 33.618961 -3.020363
2011-05-23 07:37:32 51°18.527 2°50.909 14.7479 4.132861 33.611698 -3.020363
2011-05-23 07:38:32 51°18.538 2°50.919 14.7458 4.133897 33.617526 -3.020363
2011-05-23 07:39:32 51°18.55 2°50.93 14.7495 4.132653 33.60838 -3.020363
2011-05-23 07:40:32 51°18.562 2°50.942 14.7467 4.133483 33.61376 -3.020363
2011-05-23 07:41:32 51°18.574 2°50.954 14.7439 4.133275 33.614029 -3.020363
2011-05-23 07:42:32 51°18.585 2°50.967 14.7479 4.132964 33.612639 -3.020363
2011-05-23 07:43:33 51°18.595 2°50.979 14.7443 4.132342 33.603405 -3.020363
2011-05-23 07:44:32 51°18.606 2°50.992 14.7464 4.132964 33.611205 -3.020363
2011-05-23 07:45:33 51°18.617 2°51.004 14.7555 4.133275 33.610443 -3.020363
2011-05-23 07:46:32 51°18.627 2°51.017 14.7546 4.133897 33.611788 -3.020363
2011-05-23 07:47:32 51°18.638 2°51.032 14.7502 4.134001 33.613446 -3.020363
2011-05-23 07:48:32 51°18.647 2°51.047 14.7509 4.132861 33.60596 -3.020363
2011-05-23 07:49:32 51°18.655 2°51.06 14.7496 4.133897 33.613939 -3.020363
2011-05-23 07:50:32 51°18.663 2°51.073 14.7495 4.133586 33.611832 -3.020363
2011-05-23 07:51:32 51°18.673 2°51.086 14.76 4.133172 33.606633 -3.020363
2011-05-23 07:52:32 51°18.721 2°51.112 14.7516 4.134726 33.612864 -3.020363
2011-05-23 07:53:32 51°18.73 2°51.203 14.7527 4.132239 33.596011 -3.020363
2011-05-23 07:54:32 51°18.676 2°51.255 14.759 4.133793 33.606544 -3.020363
2011-05-23 07:55:32 51°18.553 2°51.212 14.7573 4.135556 33.617524 -3.020363
2011-05-23 07:56:32 51°18.406 2°51.077 14.7502 4.131927 33.586739 -3.020363
2011-05-23 07:57:32 51°18.362 2°50.954 14.7405 4.130476 33.579296 -3.020363
2011-05-23 07:58:32 51°18.374 2°50.917 14.7421 4.130476 33.588611 -3.020363
2011-05-23 07:59:32 51°18.39 2°50.919 14.7435 4.130995 33.593318 -3.020363
2011-05-23 08:00:32 51°18.405 2°50.925 14.7928 4.131513 33.595157 -3.020363
2011-05-23 08:01:32 51°18.419 2°50.93 14.7553 4.135141 33.596564 -3.020363
2011-05-23 08:02:32 51°18.43 2°50.935 14.7527 4.132757 33.59785 -3.020363
2011-05-23 08:03:32 51°18.442 2°50.942 14.7532 4.132238 33.594578 -3.020363
2011-05-23 08:04:32 51°18.452 2°50.951 14.7519 4.131617 33.589648 -3.020363
2011-05-23 08:05:32 51°18.462 2°50.958 14.7505 4.131202 33.588033 -3.020363
2011-05-23 08:06:32 51°18.473 2°50.965 14.753 4.130995 33.584718 -3.020363
2011-05-23 08:07:32 51°18.484 2°50.972 14.7602 4.130891 33.581627 -3.020363
2011-05-23 08:08:32 51°18.511 2°50.958 14.7641 4.131098 33.575631 -3.020363
2011-05-23 08:09:32 51°18.58 2°50.969 14.7621 4.131824 33.580784 -3.020363
2011-05-23 08:10:32 51°18.633 2°51.084 14.7635 4.134519 33.605247 -3.020363
2011-05-23 08:11:32 51°18.691 2°51.32 14.7759 4.134726 33.604262 -3.020363
2011-05-23 08:12:32 51°18.751 2°51.615 14.7916 4.132964 33.578244 -3.020363
2011-05-23 08:13:32 51°18.818 2°51.93 14.7957 4.134 33.575483 -3.020363
2011-05-23 08:14:32 51°18.893 2°52.247 14.797 4.130787 33.541336 -3.020363
2011-05-23 08:15:32 51°18.969 2°52.56 14.7928 4.124671 33.487314 -3.020363
2011-05-23 08:16:32 51°19.037 2°52.88 14.8171 4.125293 33.490812 -3.020363
2011-05-23 08:17:32 51°19.104 2°53.203 14.8472 4.136695 33.569889 -3.020363
2011-05-23 08:18:32 51°19.179 2°53.515 14.8532 4.144262 33.62989 -3.020363
2011-05-23 08:19:32 51°19.242 2°53.837 14.8631 4.143744 33.623762 -3.020363
2011-05-23 08:20:32 51°19.295 2°54.159 14.8841 4.141878 33.599703 -3.020363
2011-05-23 08:21:32 51°19.341 2°54.48 14.8929 4.133792 33.510066 -3.020363
2011-05-23 08:22:32 51°19.389 2°54.801 14.9094 4.122596 33.397386 -3.020363
2011-05-23 08:23:32 51°19.451 2°55.115 14.9282 4.112852 33.297949 -3.020363
2011-05-23 08:24:32 51°19.512 2°55.43 14.9293 4.111401 33.272113 -3.020363
2011-05-23 08:25:32 51°19.584 2°55.743 14.9279 4.113785 33.288706 -3.020363
2011-05-23 08:26:32 51°19.646 2°56.06 14.9129 4.117309 33.328329 -3.020363
2011-05-23 08:27:32 51°19.701 2°56.383 14.9037 4.12073 33.372001 -3.020363
2011-05-23 08:28:32 51°19.758 2°56.7 14.9045 4.124048 33.409093 -3.020363
2011-05-23 08:29:32 51°19.819 2°57.015 14.9391 4.124151 33.400805 -3.020363
2011-05-23 08:30:32 51°19.859 2°57.337 14.9924 4.125187 33.379691 -3.020363
2011-05-23 08:31:32 51°19.904 2°57.661 15.0917 4.1284 33.356355 -3.020363
2011-05-23 08:32:32 51°19.957 2°57.977 15.1516 4.133582 33.321969 -3.020363
2011-05-23 08:33:32 51°20.003 2°58.303 15.1714 4.13752 33.322241 -3.020363
2011-05-23 08:34:32 51°20.056 2°58.626 15.087 4.138142 33.306758 -3.020363
2011-05-23 08:35:32 51°20.101 2°58.948 15.0522 4.137729 33.38468 -3.020363
2011-05-23 08:36:32 51°20.145 2°59.267 15.0696 4.136692 33.395815 -3.020363
2011-05-23 08:37:32 51°20.194 2°59.583 15.1045 4.137314 33.379533 -3.020363
2011-05-23 08:38:32 51°20.241 2°59.898 15.1446 4.139076 33.365084 -3.020363
2011-05-23 08:39:32 51°20.298 3°0.212 15.1866 4.140837 33.348556 -3.020363
2011-05-23 08:40:32 51°20.343 3°0.533 15.1938 4.142495 33.329731 -3.020363
2011-05-23 08:41:32 51°20.388 3°0.852 15.1976 4.142599 33.328556 -3.020363
2011-05-23 08:42:32 51°20.443 3°1.167 15.2058 4.140215 33.305033 -3.020363
2011-05-23 08:43:32 51°20.495 3°1.481 15.2267 4.137312 33.267751 -3.020363
2011-05-23 08:44:32 51°20.547 3°1.793 15.2715 4.132751 33.210024 -3.020363
2011-05-23 08:45:32 51°20.593 3°2.109 15.2822 4.123006 33.087117 -3.020363
2011-05-23 08:46:32 51°20.628 3°2.375 15.3005 4.117616 33.028423 -3.020363
2011-05-23 08:47:32 51°20.678 3°2.515 15.3311 4.112225 32.963548 -3.020363
2011-05-23 08:48:32 51°20.735 3°2.506 15.3644 4.111499 32.928717 -3.020363
2011-05-23 08:49:32 51°20.737 3°2.501 15.3691 4.112743 32.918436 -3.020363
2011-05-23 08:50:36 51°20.736 3°2.495 15.3816 4.112639 32.914062 -3.020363
2011-05-23 08:51:33 51°20.738 3°2.488 15.3789 4.113468 32.914573 -3.020363
2011-05-23 08:52:32 51°20.742 3°2.481 15.3843 4.11295 32.908565 -3.020363
2011-05-23 08:53:32 51°20.747 3°2.475 15.3852 4.112846 32.904883 -3.020363
2011-05-23 08:54:32 51°20.752 3°2.467 15.3807 4.111913 32.899309 -3.020363
2011-05-23 08:55:32 51°20.757 3°2.456 15.3789 4.111291 32.895133 -3.020363
2011-05-23 08:56:32 51°20.762 3°2.448 15.3671 4.11098 32.893734 -3.020363
2011-05-23 08:57:32 51°20.764 3°2.44 15.373 4.110566 32.88452 -3.020363
2011-05-23 08:58:32 51°20.767 3°2.433 15.3735 4.110566 32.881765 -3.020363
2011-05-23 08:59:32 51°20.769 3°2.425 15.3722 4.111187 32.887318 -3.020363
2011-05-23 09:00:32 51°20.771 3°2.418 15.3678 4.111809 32.890805 -3.020363
2011-05-23 09:01:32 51°20.774 3°2.41 15.3646 4.111395 32.895369 -3.020363
2011-05-23 09:02:32 51°20.778 3°2.401 15.3648 4.111499 32.894228 -3.020363
2011-05-23 09:03:32 51°20.781 3°2.391 15.3667 4.112121 32.901849 -3.020363
2011-05-23 09:04:32 51°20.784 3°2.38 15.3571 4.112224 32.89864 -3.020363
2011-05-23 09:05:32 51°20.788 3°2.371 15.3623 4.110877 32.899011 -3.020363
2011-05-23 09:06:32 51°20.791 3°2.363 15.3518 4.110877 32.893497 -3.020363
2011-05-23 09:07:32 51°20.793 3°2.353 15.3724 4.110566 32.89072 -3.020363
2011-05-23 09:08:32 51°20.837 3°2.352 15.3514 4.111706 32.888502 -3.020363
2011-05-23 09:09:32 51°20.887 3°2.517 15.368 4.111395 32.896058 -3.020363
2011-05-23 09:10:32 51°20.958 3°2.79 15.3755 4.110047 32.882647 -3.020363
2011-05-23 09:11:32 51°21.031 3°3.085 15.4321 4.10673 32.824156 -3.020363
2011-05-23 09:12:32 51°21.108 3°3.375 15.4271 4.093151 32.675037 -3.020363
2011-05-23 09:13:32 51°21.17 3°3.675 15.4518 4.084548 32.597735 -3.020363
2011-05-23 09:14:32 51°21.235 3°3.971 15.4562 4.070658 32.455785 -3.020363
2011-05-23 09:15:32 51°21.312 3°4.259 15.4315 4.073975 32.492073 -3.020363
2011-05-23 09:16:32 51°21.388 3°4.547 15.4351 4.071177 32.475995 -3.020363
2011-05-23 09:17:32 51°21.457 3°4.84 15.4442 4.066201 32.422919 -3.020363
2011-05-23 09:18:32 51°21.529 3°5.132 15.4472 4.054593 32.317668 -3.020363
2011-05-23 09:19:32 51°21.598 3°5.418 15.476 4.04796 32.253992 -3.020363
2011-05-23 09:20:32 51°21.666 3°5.708 15.4829 4.039253 32.154487 -3.020363
2011-05-23 09:21:32 51°21.723 3°6.001 15.469 4.018526 31.966566 -3.020363
2011-05-23 09:22:32 51°21.77 3°6.294 15.4878 3.997902 31.789054 -3.020363
2011-05-23 09:23:32 51°21.817 3°6.588 15.5006 3.972202 31.555483 -3.020363
2011-05-23 09:24:32 51°21.874 3°6.875 15.4826 3.958938 31.43483 -3.020363
2011-05-23 09:25:32 51°21.93 3°7.159 15.4048 3.931582 31.224876 -3.020363
2011-05-23 09:26:32 51°21.981 3°7.443 15.3845 3.917698 31.15282 -3.020363
2011-05-23 09:27:32 51°22.037 3°7.731 15.3842 3.908787 31.084329 -3.020363
2011-05-23 09:28:32 51°22.075 3°8.025 15.3987 3.913036 31.123902 -3.020363
2011-05-23 09:29:32 51°22.106 3°8.32 15.4126 3.927334 31.232287 -3.020363
2011-05-23 09:30:32 51°22.125 3°8.622 15.4391 3.938318 31.316492 -3.020363
2011-05-23 09:31:32 51°22.148 3°8.919 15.417 3.927438 31.209716 -3.020363
2011-05-23 09:32:32 51°22.167 3°9.219 15.4215 3.914797 31.112819 -3.020363
2011-05-23 09:33:32 51°22.183 3°9.516 15.4397 3.911585 31.079199 -3.020363
2011-05-23 09:34:32 51°22.212 3°9.809 15.4446 3.913449 31.080114 -3.020363
2011-05-23 09:35:32 51°22.238 3°10.106 15.4369 3.911999 31.068584 -3.020363
2011-05-23 09:36:32 51°22.259 3°10.406 15.4311 3.910237 31.058846 -3.020363
2011-05-23 09:37:32 51°22.291 3°10.705 15.4447 3.909409 31.05411 -3.020363
2011-05-23 09:38:32 51°22.314 3°10.999 15.4391 3.911274 31.061522 -3.020363
2011-05-23 09:39:32 51°22.343 3°11.292 15.4153 3.91003 31.064151 -3.020363
2011-05-23 09:40:32 51°22.382 3°11.579 15.4011 3.911688 31.08921 -3.020363
2011-05-23 09:41:32 51°22.42 3°11.871 15.403 3.912621 31.106566 -3.020363
2011-05-23 09:42:32 51°22.449 3°12.164 15.4006 3.915315 31.126511 -3.020363
2011-05-23 09:43:32 51°22.49 3°12.455 15.422 3.914072 31.116155 -3.020363
2011-05-23 09:44:32 51°22.519 3°12.719 15.4168 3.916765 31.130892 -3.020363
2011-05-23 09:45:32 51°22.536 3°12.891 15.4125 3.919045 31.149116 -3.020363
2011-05-23 09:46:32 51°22.549 3°13.013 15.4125 3.918838 31.150536 -3.020363
2011-05-23 09:47:32 51°22.57 3°13.121 15.4126 3.919563 31.155654 -3.020363
2011-05-23 09:48:32 51°22.608 3°13.19 15.4233 3.919356 31.154471 -3.020363
2011-05-23 09:49:32 51°22.651 3°13.17 15.4287 3.91977 31.153582 -3.020363
2011-05-23 09:50:32 51°22.656 3°13.139 15.4212 3.920185 31.154646 -3.020363
2011-05-23 09:51:33 51°22.657 3°13.11 15.4244 3.919874 31.151895 -3.020363
2011-05-23 09:52:32 51°22.662 3°13.081 15.428 3.919252 31.147695 -3.020363
2011-05-23 09:53:32 51°22.667 3°13.053 15.4278 3.919459 31.147576 -3.020363
2011-05-23 09:54:32 51°22.671 3°13.026 15.4305 3.919148 31.144826 -3.020363
2011-05-23 09:55:32 51°22.676 3°12.999 15.4351 3.920495 31.150237 -3.020363
2011-05-23 09:56:32 51°22.682 3°12.97 15.4345 3.919977 31.145654 -3.020363
2011-05-23 09:57:32 51°22.688 3°12.942 15.4376 3.919874 31.143436 -3.020363
2011-05-23 09:58:32 51°22.694 3°12.915 15.4479 3.919874 31.142135 -3.020363
2011-05-23 09:59:32 51°22.728 3°12.877 15.4309 3.920081 31.142017 -3.020363
2011-05-23 10:00:33 51°22.763 3°12.923 15.4179 3.917076 31.117385 -3.020363
2011-05-23 10:01:32 51°22.702 3°13.051 15.4268 3.917905 31.123418 -3.020363
2011-05-23 10:02:32 51°22.576 3°13.208 15.4263 3.917076 31.112187 -3.020363
2011-05-23 10:03:32 51°22.499 3°13.283 15.441 3.918734 31.120351 -3.020363
2011-05-23 10:04:32 51°22.509 3°13.403 15.4541 3.919252 31.116487 -3.020363
2011-05-23 10:05:32 51°22.585 3°13.412 15.451 3.919044 31.113357 -3.020363
2011-05-23 10:06:32 51°22.605 3°13.379 15.4357 3.918215 31.104081 -3.020363
2011-05-23 10:07:36 51°22.601 3°13.358 15.4371 3.916247 31.096414 -3.020363
2011-05-23 10:08:34 51°22.602 3°13.336 15.4339 3.916143 31.094848 -3.020363
2011-05-23 10:09:33 51°22.607 3°13.315 15.4402 3.91604 31.093283 -3.020363
2011-05-23 10:10:32 51°22.614 3°13.29 15.4354 3.915832 31.090153 -3.020363
2011-05-23 10:11:33 51°22.62 3°13.261 15.4451 3.915625 31.086374 -3.020363
2011-05-23 10:12:32 51°22.627 3°13.235 15.4415 3.915314 31.086222 -3.020363
2011-05-23 10:13:32 51°22.634 3°13.208 15.4477 3.914796 31.080993 -3.020363
2011-05-23 10:14:32 51°22.651 3°13.171 15.448 3.915832 31.079773 -3.020363
2011-05-23 10:15:32 51°22.729 3°13.081 15.4477 3.914589 31.070729 -3.020363
2011-05-23 10:16:32 51°22.895 3°12.956 15.4263 3.91262 31.055275 -3.020363
2011-05-23 10:17:32 51°23.088 3°12.789 15.3899 3.905678 31.016586 -3.020363
2011-05-23 10:18:33 51°23.286 3°12.627 15.376 3.899876 30.986646 -3.020363
2011-05-23 10:19:32 51°23.481 3°12.486 15.3546 3.900291 31.002626 -3.020363
2011-05-23 10:20:32 51°23.674 3°12.321 15.357 3.901949 31.032224 -3.020363
2011-05-23 10:21:32 51°23.854 3°12.113 15.3559 3.907648 31.077488 -3.020363
2011-05-23 10:22:32 51°24.011 3°11.853 15.354 3.907855 31.083225 -3.020363
2011-05-23 10:23:32 51°24.133 3°11.537 15.3574 3.908373 31.088464 -3.020363
2011-05-23 10:24:32 51°24.21 3°11.18 15.3528 3.908166 31.100295 -3.020363
2011-05-23 10:25:32 51°24.279 3°10.821 15.3778 3.908995 31.105035 -3.020363
2011-05-23 10:26:32 51°24.343 3°10.458 15.4026 3.911896 31.111855 -3.020363
2011-05-23 10:27:33 51°24.394 3°10.086 15.4142 3.911896 31.098194 -3.020363
2011-05-23 10:28:32 51°24.45 3°9.732 15.4215 3.912932 31.097614 -3.020363
2011-05-23 10:29:32 51°24.509 3°9.377 15.4338 3.914589 31.107734 -3.020363
2011-05-23 10:30:32 51°24.559 3°9.019 15.4596 3.918527 31.129568 -3.020363
2011-05-23 10:31:32 51°24.619 3°8.671 15.4777 3.923293 31.156119 -3.020363
2011-05-23 10:32:32 51°24.673 3°8.325 15.5209 3.931167 31.202975 -3.020363
2011-05-23 10:33:32 51°24.724 3°7.98 15.5439 3.94298 31.278717 -3.020363
2011-05-23 10:34:32 51°24.788 3°7.646 15.5594 3.953963 31.358149 -3.020363
2011-05-23 10:35:32 51°24.851 3°7.31 15.565 3.962149 31.42067 -3.020363
2011-05-23 10:36:32 51°24.907 3°6.972 15.5628 3.964844 31.443165 -3.020363
2011-05-23 10:37:32 51°24.973 3°6.639 15.5879 3.963911 31.428383 -3.020363
2011-05-23 10:38:32 51°25.038 3°6.305 15.5651 3.962978 31.408381 -3.020363
2011-05-23 10:39:32 51°25.167 3°6.031 15.5528 3.972305 31.509753 -3.020363
2011-05-23 10:40:33 51°25.358 3°6.029 15.5463 3.986398 31.641596 -3.020363
2011-05-23 10:41:32 51°25.427 3°6.301 15.5321 4.020805 31.946808 -3.020363
2011-05-23 10:42:32 51°25.553 3°6.54 15.5404 4.028474 32.02409 -3.020363
2011-05-23 10:43:32 51°25.694 3°6.767 15.5362 4.021323 31.960052 -3.020363
2011-05-23 10:44:32 51°25.83 3°7.005 15.5358 4.012307 31.880842 -3.020363
2011-05-23 10:45:33 51°25.965 3°7.251 15.5455 4.003187 31.800742 -3.020363
2011-05-23 10:46:32 51°26.085 3°7.496 15.5475 3.999974 31.764357 -3.020363
2011-05-23 10:47:32 51°26.169 3°7.787 15.5536 3.993964 31.711163 -3.020363
2011-05-23 10:48:32 51°26.268 3°8.072 15.5433 4.002461 31.778429 -3.020363
2011-05-23 10:49:32 51°26.347 3°8.332 15.5476 4.006918 31.822507 -3.020363
2011-05-23 10:50:32 51°26.408 3°8.48 15.5695 3.993445 31.701296 -3.020363
2011-05-23 10:51:32 51°26.458 3°8.496 15.5868 3.982046 31.584686 -3.020363
2011-05-23 10:52:32 51°26.463 3°8.494 15.5897 3.977693 31.536377 -3.020363
2011-05-23 10:53:32 51°26.462 3°8.499 15.5869 3.976553 31.525651 -3.020363
2011-05-23 10:54:32 51°26.462 3°8.504 15.588 3.976139 31.520023 -3.020363
2011-05-23 10:55:32 51°26.461 3°8.506 15.5895 3.97531 31.5127 -3.020363
2011-05-23 10:56:32 51°26.459 3°8.512 15.5872 3.97417 31.505253 -3.020363
2011-05-23 10:57:32 51°26.457 3°8.516 15.5906 3.973548 31.498451 -3.020363
2011-05-23 10:58:32 51°26.456 3°8.519 15.584 3.973651 31.484959 -3.020363
2011-05-23 10:59:32 51°26.455 3°8.524 15.5926 3.972822 31.477641 -3.020363
2011-05-23 11:00:32 51°26.454 3°8.529 15.5768 3.972926 31.477247 -3.020363
2011-05-23 11:01:32 51°26.455 3°8.533 15.5905 3.971579 31.472552 -3.020363
2011-05-23 11:02:32 51°26.455 3°8.539 15.5922 3.971475 31.462478 -3.020363
2011-05-23 11:03:32 51°26.454 3°8.544 15.6067 3.970957 31.455944 -3.020363
2011-05-23 11:04:32 51°26.452 3°8.55 15.5928 3.970853 31.453068 -3.020363
2011-05-23 11:05:32 51°26.45 3°8.557 15.593 3.969921 31.445491 -3.020363
2011-05-23 11:06:32 51°26.446 3°8.564 15.6045 3.969402 31.439611 -3.020363
2011-05-23 11:07:32 51°26.442 3°8.572 15.6104 3.96961 31.433601 -3.020363
2011-05-23 11:08:32 51°26.448 3°8.574 15.5999 3.968988 31.42681 -3.020363
2011-05-23 11:09:32 51°26.492 3°8.647 15.5845 3.968677 31.432557 -3.020363
2011-05-23 11:10:32 51°26.42 3°8.721 15.5884 3.965983 31.412701 -3.020363
2011-05-23 11:11:32 51°26.276 3°8.575 15.5949 3.962978 31.385532 -3.020363
2011-05-23 11:12:33 51°26.193 3°8.262 15.5985 3.963081 31.381229 -3.020363
2011-05-23 11:13:32 51°26.139 3°7.938 15.587 3.972097 31.459466 -3.020363
2011-05-23 11:14:32 51°26.088 3°7.607 15.5677 3.991061 31.642 -3.020363
2011-05-23 11:15:32 51°26.095 3°7.273 15.5836 4.010544 31.82281 -3.020363
2011-05-23 11:16:32 51°26.202 3°6.992 15.5685 3.993548 31.663976 -3.020363
2011-05-23 11:17:32 51°26.327 3°6.733 15.56 3.981216 31.565535 -3.020363
2011-05-23 11:18:32 51°26.451 3°6.47 15.5511 3.978522 31.549607 -3.020363
2011-05-23 11:19:32 51°26.584 3°6.22 15.5537 3.982978 31.59819 -3.020363
2011-05-23 11:20:32 51°26.72 3°5.975 15.5465 3.988471 31.655974 -3.020363
2011-05-23 11:21:33 51°26.853 3°5.719 15.5162 3.991062 31.689448 -3.020363
2011-05-23 11:22:32 51°26.979 3°5.465 15.4784 3.979352 31.612191 -3.020363
2011-05-23 11:23:33 51°27.113 3°5.207 15.4495 3.97127 31.565001 -3.020363
2011-05-23 11:24:32 51°27.247 3°4.964 15.4503 3.967228 31.55094 -3.020363
2011-05-23 11:25:32 51°27.384 3°4.715 15.4405 3.968472 31.562618 -3.020363
2011-05-23 11:26:32 51°27.526 3°4.475 15.4101 3.969198 31.581579 -3.020363
2011-05-23 11:27:32 51°27.694 3°4.283 15.3726 3.964949 31.563042 -3.020363
2011-05-23 11:28:32 51°27.851 3°4.069 15.3348 3.960908 31.556234 -3.020363
2011-05-23 11:29:32 51°28.004 3°3.845 15.2744 3.951479 31.51543 -3.020363
2011-05-23 11:30:32 51°28.142 3°3.627 15.2592 3.940599 31.45769 -3.020363
2011-05-23 11:31:32 51°28.215 3°3.553 15.246 3.938009 31.443237 -3.020363
2011-05-23 11:32:32 51°28.251 3°3.539 15.2567 3.93718 31.440487 -3.020363
2011-05-23 11:33:32 51°28.254 3°3.525 15.2579 3.936973 31.434682 -3.020363
2011-05-23 11:34:32 51°28.248 3°3.518 15.2588 3.936766 31.429538 -3.020363
2011-05-23 11:35:32 51°28.24 3°3.512 15.2564 3.935937 31.424146 -3.020363
2011-05-23 11:36:32 51°28.233 3°3.507 15.2571 3.935626 31.422042 -3.020363
2011-05-23 11:37:32 51°28.224 3°3.504 15.2578 3.935211 31.417696 -3.020363
2011-05-23 11:38:32 51°28.218 3°3.499 15.257 3.9349 31.414272 -3.020363
2011-05-23 11:39:32 51°28.212 3°3.492 15.2571 3.935004 31.411236 -3.020363
2011-05-23 11:40:32 51°28.204 3°3.487 15.2539 3.934589 31.401617 -3.020363
2011-05-23 11:41:32 51°28.197 3°3.484 15.2575 3.934279 31.398854 -3.020363
2011-05-23 11:42:32 51°28.189 3°3.482 15.2585 3.934175 31.395955 -3.020363
2011-05-23 11:43:33 51°28.18 3°3.48 15.2705 3.934589 31.393709 -3.020363
2011-05-23 11:44:32 51°28.173 3°3.475 15.2776 3.935107 31.391726 -3.020363
2011-05-23 11:45:32 51°28.164 3°3.471 15.2824 3.935418 31.387903 -3.020363
2011-05-23 11:46:32 51°28.157 3°3.467 15.2983 3.935625 31.384478 -3.020363
2011-05-23 11:47:32 51°28.151 3°3.462 15.3075 3.93635 31.382366 -3.020363
2011-05-23 11:48:32 51°28.144 3°3.459 15.3076 3.937076 31.38157 -3.020363
2011-05-23 11:49:32 51°28.137 3°3.455 15.3223 3.937283 31.381437 -3.020363
2011-05-23 11:50:32 51°28.13 3°3.45 15.3273 3.938319 31.382087 -3.020363
2011-05-23 11:51:32 51°28.125 3°3.445 15.3187 3.939044 31.381293 -3.020363
2011-05-23 11:52:32 51°28.12 3°3.438 15.3362 3.939355 31.387997 -3.020363
2011-05-23 11:53:32 51°28.114 3°3.431 15.3397 3.940495 31.386936 -3.020363
2011-05-23 11:54:32 51°28.108 3°3.425 15.35 3.941013 31.39219 -3.020363
2011-05-23 11:55:32 51°28.1 3°3.419 15.3165 3.941427 31.392581 -3.020363
2011-05-23 11:56:32 51°28.093 3°3.414 15.3079 3.938319 31.389321 -3.020363
2011-05-23 11:57:32 51°28.123 3°3.372 15.3061 3.937594 31.382224 -3.020363
2011-05-23 11:58:32 51°28.2 3°3.425 15.346 3.936765 31.370921 -3.020363
2011-05-23 11:59:32 51°28.253 3°3.542 15.3852 3.937697 31.352924 -3.020363
2011-05-23 12:00:32 51°28.304 3°3.525 15.3571 3.938733 31.351615 -3.020363
2011-05-23 12:01:32 51°28.308 3°3.505 15.3708 3.934899 31.331393 -3.020363
2011-05-23 12:02:32 51°28.304 3°3.493 15.3434 3.934588 31.317491 -3.020363
2011-05-23 12:03:32 51°28.298 3°3.486 15.3672 3.933034 31.313541 -3.020363
2011-05-23 12:04:32 51°28.29 3°3.481 15.3638 3.934588 31.308975 -3.020363
2011-05-23 12:05:32 51°28.281 3°3.477 15.3597 3.933863 31.30844 -3.020363
2011-05-23 12:06:32 51°28.282 3°3.459 15.3573 3.933138 31.309217 -3.020363
2011-05-23 12:07:32 51°28.286 3°3.358 15.3488 3.933241 31.303584 -3.020363
2011-05-23 12:08:32 51°28.195 3°3.12 15.3398 3.93262 31.311832 -3.020363
2011-05-23 12:09:32 51°28.068 3°2.819 15.3093 3.935106 31.331919 -3.020363
2011-05-23 12:10:32 51°27.963 3°2.493 15.2748 3.934382 31.360282 -3.020363
2011-05-23 12:11:32 51°27.848 3°2.175 15.283 3.939045 31.414194 -3.020363
2011-05-23 12:12:32 51°27.723 3°1.866 15.3127 3.942775 31.451952 -3.020363
2011-05-23 12:13:32 51°27.575 3°1.583 15.3068 3.948578 31.489652 -3.020363
2011-05-23 12:14:32 51°27.434 3°1.285 15.2784 3.948785 31.499418 -3.020363
2011-05-23 12:15:32 51°27.317 3°0.954 15.2261 3.948475 31.522437 -3.020363
2011-05-23 12:16:32 51°27.213 3°0.615 15.2022 3.948475 31.560202 -3.020363
2011-05-23 12:17:33 51°27.163 3°0.249 15.1636 3.950963 31.608263 -3.020363
2011-05-23 12:18:32 51°27.114 2°59.892 15.1427 3.954693 31.660835 -3.020363
2011-05-23 12:19:32 51°27.054 2°59.533 15.1708 3.958631 31.709984 -3.020363
2011-05-23 12:20:32 51°26.996 2°59.175 15.1625 3.962051 31.721795 -3.020363
2011-05-23 12:21:32 51°26.955 2°58.815 15.1384 3.964538 31.752674 -3.020363
2011-05-23 12:22:32 51°26.906 2°58.459 15.1301 3.966922 31.815495 -3.020363
2011-05-23 12:23:32 51°26.863 2°58.102 15.1293 3.968787 31.820085 -3.020363
2011-05-23 12:24:33 51°26.809 2°57.743 15.1478 3.971274 31.835594 -3.020363
2011-05-23 12:25:32 51°26.766 2°57.391 15.1819 3.974175 31.849433 -3.020363
2011-05-23 12:26:32 51°26.726 2°57.034 15.2242 3.976662 31.839447 -3.020363
2011-05-23 12:27:32 51°26.682 2°56.677 15.2292 3.982154 31.8603 -3.020363
2011-05-23 12:28:32 51°26.628 2°56.324 15.2418 3.988993 31.916598 -3.020363
2011-05-23 12:29:32 51°26.577 2°55.97 15.1732 3.994589 31.973903 -3.020363
2011-05-23 12:30:32 51°26.535 2°55.615 15.1263 3.995834 32.034853 -3.020363
2011-05-23 12:31:32 51°26.492 2°55.258 15.0976 3.995213 32.065101 -3.020363
2011-05-23 12:32:32 51°26.44 2°54.902 15.0621 3.995317 32.088366 -3.020363
2011-05-23 12:33:32 51°26.392 2°54.544 14.993 3.995732 32.118524 -3.020363
2011-05-23 12:34:32 51°26.367 2°54.178 14.9158 3.993349 32.167876 -3.020363
2011-05-23 12:35:32 51°26.341 2°53.816 14.8773 3.988583 32.176206 -3.020363
2011-05-23 12:36:32 51°26.307 2°53.454 14.8628 3.985371 32.176005 -3.020363
2011-05-23 12:37:32 51°26.27 2°53.092 14.8748 3.985474 32.176938 -3.020363
2011-05-23 12:38:32 51°26.242 2°52.727 14.866 3.986822 32.189746 -3.020363
2011-05-23 12:39:32 51°26.218 2°52.359 14.8105 3.98848 32.216993 -3.020363
2011-05-23 12:40:32 51°26.187 2°51.992 14.7677 3.986408 32.240829 -3.020363
2011-05-23 12:41:32 51°26.149 2°51.624 14.7212 3.984543 32.255606 -3.020363
2011-05-23 12:42:32 51°26.119 2°51.259 14.6819 3.982782 32.280309 -3.020363
2011-05-23 12:43:32 51°26.096 2°50.894 14.6431 3.983093 32.31209 -3.020363
2011-05-23 12:44:32 51°26.068 2°50.53 14.64 3.986514 32.371384 -3.020363
2011-05-23 12:45:32 51°26.032 2°50.17 14.6147 3.993871 32.441472 -3.020363
2011-05-23 12:46:32 51°26.008 2°49.808 14.6302 3.995219 32.478692 -3.020363
2011-05-23 12:47:32 51°26.008 2°49.444 14.6482 3.992317 32.430864 -3.020363
2011-05-23 12:48:32 51°26 2°49.094 14.6639 3.991281 32.406917 -3.020363
2011-05-23 12:49:32 51°25.985 2°48.86 14.6645 3.995322 32.435182 -3.020363
2011-05-23 12:50:32 51°25.972 2°48.673 14.6662 3.997809 32.457696 -3.020363
2011-05-23 12:51:32 51°25.979 2°48.568 14.6603 3.999985 32.475315 -3.020363
2011-05-23 12:52:32 51°25.974 2°48.553 14.6461 4.001022 32.489559 -3.020363
2011-05-23 12:53:32 51°25.971 2°48.543 14.6422 4.003509 32.525295 -3.020363
2011-05-23 12:54:32 51°25.967 2°48.538 14.5868 4.003509 32.530863 -3.020363
2011-05-23 12:55:32 51°25.962 2°48.53 14.5983 4.00579 32.605951 -3.020363
2011-05-23 12:56:32 51°25.955 2°48.522 14.5566 4.004235 32.571591 -3.020363
2011-05-23 12:57:32 51°25.95 2°48.516 14.3995 4.006931 32.661122 -3.020363
2011-05-23 12:58:32 51°25.968 2°48.452 14.2663 4.007658 32.780385 -3.020363
2011-05-23 12:59:32 51°25.933 2°48.306 14.2074 4.005173 32.872558 -3.020363
2011-05-23 13:00:32 51°25.837 2°48.047 14.1743 4.003515 32.894418 -3.020363
2011-05-23 13:01:32 51°25.737 2°47.727 14.3351 4.002479 32.904896 -3.020363
2011-05-23 13:02:33 51°25.635 2°47.4 14.5577 3.997605 32.668982 -3.020363
2011-05-23 13:03:32 51°25.532 2°47.092 14.6223 4.001438 32.56924 -3.020363
2011-05-23 13:04:32 51°25.425 2°46.78 14.6426 4.00351 32.537825 -3.020363
2011-05-23 13:05:32 51°25.324 2°46.46 14.3041 4.008899 32.616691 -3.020363
2011-05-23 13:06:32 51°25.222 2°46.135 14.2171 4.014396 32.924928 -3.020363
2011-05-23 13:07:32 51°25.116 2°45.815 14.1883 4.012946 32.973707 -3.020363
2011-05-23 13:08:32 51°25.003 2°45.501 14.1913 4.012428 32.986833 -3.020363
2011-05-23 13:09:32 51°24.891 2°45.181 14.1762 4.013464 32.997768 -3.020363
2011-05-23 13:10:32 51°24.782 2°44.86 14.1743 4.014501 33.012285 -3.020363
2011-05-23 13:11:32 51°24.68 2°44.535 14.1709 4.015123 33.028737 -3.020363
2011-05-23 13:12:32 51°24.568 2°44.214 14.1606 4.016159 33.033946 -3.020363
2011-05-23 13:13:33 51°24.455 2°43.889 14.1589 4.01647 33.041817 -3.020363
2011-05-23 13:14:32 51°24.353 2°43.568 14.1743 4.016263 33.047805 -3.020363
2011-05-23 13:15:32 51°24.249 2°43.242 14.1638 4.016781 33.048974 -3.020363
2011-05-23 13:16:32 51°24.136 2°42.927 14.1706 4.017817 33.059921 -3.020363
2011-05-23 13:16:52 51°24.1 2°42.821 14.1707 4.018646 33.066096 -3.020363
2011-05-23 13:17:52 51°24.005 2°42.496 14.1991 4.021444 33.070247 -3.020363
2011-05-23 13:18:52 51°23.908 2°42.174 14.1977 4.02331 33.081621 -3.020363
2011-05-23 13:19:52 51°23.805 2°41.858 14.17 4.024035 33.095453 -3.020363
2011-05-23 13:20:52 51°23.712 2°41.532 14.1692 4.023621 33.100984 -3.020363
2011-05-23 13:21:52 51°23.617 2°41.212 14.1786 4.024243 33.106691 -3.020363
2011-05-23 13:22:53 51°23.508 2°40.896 14.1801 4.025694 33.112104 -3.020363
2011-05-23 13:23:52 51°23.407 2°40.584 14.1941 4.027455 33.12396 -3.020363
2011-05-23 13:24:52 51°23.312 2°40.259 14.2043 4.029632 33.133152 -3.020363
2011-05-23 13:25:52 51°23.211 2°39.938 14.2208 4.032015 33.14424 -3.020363
2011-05-23 13:26:52 51°23.107 2°39.617 14.2365 4.034295 33.160121 -3.020363
2011-05-23 13:27:52 51°23.008 2°39.293 14.2459 4.036679 33.172637 -3.020363
2011-05-23 13:28:52 51°22.908 2°38.972 14.2599 4.039581 33.187744 -3.020363
2011-05-23 13:29:52 51°22.799 2°38.658 14.2633 4.042482 33.207156 -3.020363
2011-05-23 13:30:52 51°22.687 2°38.346 14.2738 4.045177 33.223225 -3.020363
2011-05-23 13:31:52 51°22.584 2°38.027 14.2532 4.046939 33.237215 -3.020363
2011-05-23 13:32:52 51°22.482 2°37.711 14.2451 4.04725 33.253018 -3.020363
2011-05-23 13:33:53 51°22.368 2°37.401 14.2451 4.048079 33.265662 -3.020363
2011-05-23 13:34:52 51°22.26 2°37.094 14.238 4.048494 33.278112 -3.020363
2011-05-23 13:35:52 51°22.16 2°36.779 14.2788 4.050256 33.291389 -3.020363
2011-05-23 13:36:52 51°22.054 2°36.473 14.3759 4.054815 33.273411 -3.020363
2011-05-23 13:37:52 51°21.949 2°36.162 14.4095 4.05896 33.247428 -3.020363
2011-05-23 13:38:52 51°21.85 2°35.848 14.4413 4.059789 33.227777 -3.020363
2011-05-23 13:39:52 51°21.749 2°35.533 14.5037 4.062069 33.217116 -3.020363
2011-05-23 13:40:52 51°21.635 2°35.229 14.5385 4.060928 33.153204 -3.020363
2011-05-23 13:41:52 51°21.524 2°34.922 14.5506 4.057922 33.107333 -3.020363
2011-05-23 13:42:52 51°21.417 2°34.618 14.5626 4.056367 33.078978 -3.020363
2011-05-23 13:43:52 51°21.312 2°34.31 14.5631 4.055019 33.065299 -3.020363
2011-05-23 13:44:52 51°21.207 2°33.996 14.5556 4.056678 33.078258 -3.020363
2011-05-23 13:45:52 51°21.098 2°33.689 14.5636 4.061445 33.123063 -3.020363
2011-05-23 13:46:52 51°20.986 2°33.386 14.6068 4.06756 33.163779 -3.020363
2011-05-23 13:47:52 51°20.883 2°33.074 14.6207 4.074504 33.197075 -3.020363
2011-05-23 13:48:52 51°20.775 2°32.765 14.5895 4.080205 33.247493 -3.020363
2011-05-23 13:49:52 51°20.67 2°32.461 14.5419 4.081657 33.298501 -3.020363
2011-05-23 13:50:52 51°20.559 2°32.159 14.5064 4.087565 33.387403 -3.020363
2011-05-23 13:51:52 51°20.453 2°31.853 14.4925 4.095754 33.481494 -3.020363
2011-05-23 13:52:52 51°20.349 2°31.548 14.4648 4.101145 33.547275 -3.020363
2011-05-23 13:53:52 51°20.243 2°31.245 14.4917 4.102596 33.56847 -3.020363
2011-05-23 13:54:52 51°20.141 2°30.939 14.4812 4.106535 33.597228 -3.020363
2011-05-23 13:55:53 51°20.064 2°30.611 14.4689 4.109541 33.62903 -3.020363
2011-05-23 13:56:52 51°20 2°30.295 14.4475 4.113584 33.679012 -3.020363
2011-05-23 13:57:53 51°19.993 2°30.052 14.3651 4.117212 33.745595 -3.020363
2011-05-23 13:58:52 51°20.019 2°30.007 14.3215 4.118457 33.822583 -3.020363
2011-05-23 13:59:56 51°20.01 2°30.013 14.2764 4.117421 33.845972 -3.020363
2011-05-23 14:00:55 51°20.009 2°30.019 14.2659 4.11597 33.860472 -3.020363
2011-05-23 14:01:53 51°20.01 2°30.025 14.2798 4.115659 33.865678 -3.020363
2011-05-23 14:02:52 51°20.019 2°30.031 14.2906 4.11597 33.858274 -3.020363
2011-05-23 14:03:53 51°20.067 2°30.089 14.2954 4.116488 33.854977 -3.020363
2011-05-23 14:04:52 51°20.021 2°30.246 14.3221 4.116592 33.84275 -3.020363
2011-05-23 14:05:52 51°19.912 2°30.507 14.3753 4.11711 33.822643 -3.020363
2011-05-23 14:06:52 51°19.767 2°30.755 14.4162 4.114932 33.753817 -3.020363
2011-05-23 14:07:52 51°19.625 2°31.006 14.4327 4.1112 33.695656 -3.020363
2011-05-23 14:08:52 51°19.488 2°31.257 14.4303 4.11006 33.672159 -3.020363
2011-05-23 14:09:52 51°19.356 2°31.514 14.5502 4.114517 33.680293 -3.020363
2011-05-23 14:10:52 51°19.243 2°31.719 14.557 4.11493 33.623322 -3.020363
2011-05-23 14:11:52 51°19.149 2°31.892 14.5453 4.114515 33.610158 -3.020363
2011-05-23 14:12:52 51°19.057 2°32.064 14.5302 4.114827 33.632486 -3.020363
2011-05-23 14:13:52 51°18.967 2°32.239 14.5049 4.116175 33.660692 -3.020363
2011-05-23 14:14:52 51°18.877 2°32.416 14.471 4.11773 33.687198 -3.020363
2011-05-23 14:15:52 51°18.784 2°32.592 14.4637 4.118145 33.714183 -3.020363
2011-05-23 14:16:52 51°18.693 2°32.77 14.4491 4.118559 33.728135 -3.020363
2011-05-23 14:17:52 51°18.6 2°32.962 14.4972 4.118974 33.727571 -3.020363
2011-05-23 14:18:52 51°18.476 2°33.216 14.562 4.120114 33.698112 -3.020363
2011-05-23 14:19:52 51°18.349 2°33.479 14.6121 4.119905 33.639834 -3.020363
2011-05-23 14:20:52 51°18.214 2°33.736 14.6118 4.120734 33.60847 -3.020363
2011-05-23 14:21:52 51°18.089 2°34.002 14.6182 4.121563 33.618903 -3.020363
2011-05-23 14:22:53 51°17.949 2°34.258 14.6237 4.122704 33.648032 -3.020363
2011-05-23 14:23:52 51°17.815 2°34.512 14.61 4.125502 33.65839 -3.020363
2011-05-23 14:24:52 51°17.66 2°34.745 14.5432 4.128198 33.694499 -3.020363
2011-05-23 14:25:53 51°17.492 2°34.973 14.4433 4.13162 33.787253 -3.020363
2011-05-23 14:26:52 51°17.333 2°35.202 14.3709 4.131828 33.872844 -3.020363
2011-05-23 14:27:52 51°17.17 2°35.434 14.3355 4.130067 33.904193 -3.020363
2011-05-23 14:28:52 51°17.004 2°35.665 14.3483 4.12903 33.918111 -3.020363
2011-05-23 14:29:52 51°16.842 2°35.896 14.5642 4.129134 33.884671 -3.020363
2011-05-23 14:30:52 51°16.682 2°36.126 14.5902 4.137217 33.793381 -3.020363
2011-05-23 14:31:53 51°16.56 2°36.407 14.6186 4.143644 33.865098 -3.020363
2011-05-23 14:32:52 51°16.542 2°36.712 14.6158 4.147375 33.855583 -3.020363
2011-05-23 14:33:52 51°16.574 2°36.89 14.605 4.148412 33.868664 -3.020363
2011-05-23 14:34:52 51°16.625 2°36.947 14.6104 4.147894 33.868292 -3.020363
2011-05-23 14:35:52 51°16.638 2°36.968 14.6252 4.147894 33.863937 -3.020363
2011-05-23 14:36:53 51°16.645 2°36.994 14.631 4.148101 33.861474 -3.020363
2011-05-23 14:37:52 51°16.651 2°37.021 14.6266 4.147997 33.855451 -3.020363
2011-05-23 14:38:52 51°16.657 2°37.05 14.6348 4.147997 33.855451 -3.020363
2011-05-23 14:39:52 51°16.664 2°37.08 14.6322 4.148204 33.85299 -3.020363
2011-05-23 14:40:52 51°16.671 2°37.11 14.6354 4.148101 33.85277 -3.020363
2011-05-23 14:41:52 51°16.679 2°37.139 14.63 4.147997 33.8511 -3.020363
2011-05-23 14:42:52 51°16.687 2°37.17 14.6386 4.147997 33.84965 -3.020363
2011-05-23 14:43:52 51°16.695 2°37.201 14.641 4.148204 33.84864 -3.020363
2011-05-23 14:44:52 51°16.703 2°37.231 14.6437 4.148412 33.849079 -3.020363
2011-05-23 14:45:52 51°16.711 2°37.264 14.6451 4.148723 33.84684 -3.020363
2011-05-23 14:46:52 51°16.72 2°37.298 14.6486 4.14893 33.845106 -3.020363
2011-05-23 14:47:52 51°16.729 2°37.333 14.6566 4.149344 33.845986 -3.020363
2011-05-23 14:48:52 51°16.74 2°37.366 14.6613 4.149863 33.844913 -3.020363
2011-05-23 14:49:52 51°16.78 2°37.355 14.6739 4.149863 33.844913 -3.020363
2011-05-23 14:50:52 51°16.789 2°37.294 14.6849 4.15007 33.830873 -3.020363
2011-05-23 14:51:52 51°16.704 2°37.293 14.6845 4.148204 33.805928 -3.020363
2011-05-23 14:52:52 51°16.546 2°37.314 14.6386 4.148826 33.818822 -3.020363
2011-05-23 14:53:52 51°16.386 2°37.296 14.5717 4.14976 33.879502 -3.020363
2011-05-23 14:54:52 51°16.225 2°37.275 14.5197 4.14976 33.923124 -3.020363
2011-05-23 14:55:52 51°16.062 2°37.252 14.5019 4.148724 33.954469 -3.020363
2011-05-23 14:56:52 51°15.88 2°37.278 14.4849 4.14945 33.973517 -3.020363
2011-05-23 14:57:52 51°15.683 2°37.327 14.4674 4.149761 33.99171 -3.020363
2011-05-23 14:58:52 51°15.488 2°37.351 14.47 4.15028 34.007427 -3.020363
2011-05-23 14:59:52 51°15.297 2°37.356 14.4793 4.151938 34.015291 -3.020363
2011-05-23 15:00:52 51°15.103 2°37.371 14.4924 4.152871 34.016511 -3.020363
2011-05-23 15:01:52 51°14.907 2°37.391 14.4473 4.15256 34.020983 -3.020363
2011-05-23 15:02:52 51°14.712 2°37.407 14.4074 4.150384 34.034013 -3.020363
2011-05-23 15:03:52 51°14.516 2°37.427 14.3694 4.148518 34.054333 -3.020363
2011-05-23 15:04:52 51°14.32 2°37.44 14.3551 4.148623 34.085426 -3.020363
2011-05-23 15:05:52 51°14.126 2°37.46 14.3628 4.150489 34.109182 -3.020363
2011-05-23 15:06:52 51°13.932 2°37.462 14.3895 4.152665 34.113701 -3.020363
2011-05-23 15:07:52 51°13.739 2°37.45 14.4143 4.15308 34.096901 -3.020363
2011-05-23 15:08:52 51°13.545 2°37.436 14.4192 4.152769 34.079348 -3.020363
2011-05-23 15:09:52 51°13.351 2°37.418 14.4264 4.152872 34.074422 -3.020363
2011-05-23 15:10:52 51°13.16 2°37.371 14.4986 4.15422 34.072824 -3.020363
2011-05-23 15:11:52 51°12.972 2°37.331 14.6258 4.164378 34.082247 -3.020363
2011-05-23 15:12:52 51°12.782 2°37.294 14.7156 4.176505 34.088491 -3.020363
2011-05-23 15:13:52 51°12.593 2°37.26 14.7262 4.182932 34.090934 -3.020363
2011-05-23 15:14:52 51°12.404 2°37.217 14.7227 4.182517 34.084245 -3.020363
2011-05-23 15:15:52 51°12.215 2°37.181 14.7229 4.181066 34.072484 -3.020363
2011-05-23 15:16:52 51°12.029 2°37.134 14.7339 4.180548 34.065581 -3.020363
2011-05-23 15:17:52 51°11.847 2°37.065 14.7561 4.181169 34.055967 -3.020363
2011-05-23 15:18:52 51°11.669 2°36.986 14.768 4.183139 34.058624 -3.020363
2011-05-23 15:19:52 51°11.492 2°36.909 14.7776 4.18542 34.069197 -3.020363
2011-05-23 15:20:52 51°11.315 2°36.825 14.7714 4.186871 34.080946 -3.020363
2011-05-23 15:21:52 51°11.138 2°36.748 14.7671 4.186767 34.082184 -3.020363
2011-05-23 15:22:52 51°10.96 2°36.673 14.764 4.186249 34.07965 -3.020363
2011-05-23 15:23:52 51°10.785 2°36.593 14.7643 4.186042 34.07849 -3.020363
2011-05-23 15:24:52 51°10.608 2°36.519 14.759 4.186353 34.080593 -3.020363
2011-05-23 15:25:52 51°10.426 2°36.485 14.7342 4.186042 34.088673 -3.020363
2011-05-23 15:26:52 51°10.259 2°36.642 14.7162 4.184383 34.093227 -3.020363
2011-05-23 15:27:52 51°10.236 2°36.992 14.7795 4.182829 34.097275 -3.020363
2011-05-23 15:28:52 51°10.259 2°37.366 14.971 4.192779 34.062779 -3.020363
2011-05-23 15:29:52 51°10.276 2°37.74 14.9844 4.203353 34.058086 -3.020363
2011-05-23 15:30:52 51°10.306 2°38.117 15.0234 4.203249 34.042709 -3.020363
2011-05-23 15:31:52 51°10.334 2°38.503 15.0504 4.205114 34.025705 -3.020363
2011-05-23 15:32:52 51°10.397 2°38.88 15.0748 4.206565 34.015787 -3.020363
2011-05-23 15:33:52 51°10.458 2°39.249 15.0764 4.207291 34.009395 -3.020363
2011-05-23 15:34:52 51°10.514 2°39.625 15.1542 4.207602 33.99639 -3.020363
2011-05-23 15:35:52 51°10.57 2°40.002 15.2013 4.211644 33.96329 -3.020363
2011-05-23 15:36:52 51°10.657 2°40.371 15.2151 4.212473 33.947148 -3.020363
2011-05-23 15:37:52 51°10.736 2°40.74 15.2124 4.212888 33.934441 -3.020363
2011-05-23 15:38:52 51°10.805 2°41.112 15.1872 4.210089 33.936397 -3.020363
2011-05-23 15:39:52 51°10.871 2°41.483 15.2277 4.2076 33.905409 -3.020363
2011-05-23 15:40:52 51°10.939 2°41.85 15.2597 4.209466 33.889375 -3.020363
2011-05-23 15:41:52 51°11.005 2°42.094 15.293 4.211539 33.882365 -3.020363
2011-05-23 15:42:52 51°11.09 2°42.137 15.2755 4.213094 33.877828 -3.020363
2011-05-23 15:43:52 51°11.12 2°42.171 15.2351 4.212472 33.892892 -3.020363
2011-05-23 15:44:52 51°11.136 2°42.228 15.2045 4.209985 33.905455 -3.020363
2011-05-23 15:45:52 51°11.15 2°42.287 15.1873 4.208119 33.909363 -3.020363
2011-05-23 15:46:52 51°11.173 2°42.344 15.1813 4.207393 33.91283 -3.020363
2011-05-23 15:47:52 51°11.219 2°42.313 15.167 4.206875 33.913878 -3.020363
2011-05-23 15:48:52 51°11.166 2°42.252 15.1635 4.205942 33.917627 -3.020363
2011-05-23 15:49:52 51°11.119 2°42.194 15.1415 4.206357 33.92351 -3.020363
2011-05-23 15:50:52 51°11.109 2°42.151 15.1444 4.205631 33.914824 -3.020363
2011-05-23 15:51:52 51°11.113 2°42.121 15.1529 4.204594 33.908341 -3.020363
2011-05-23 15:52:52 51°11.133 2°42.13 15.17 4.205216 33.906797 -3.020363
2011-05-23 15:53:52 51°11.161 2°42.153 15.1526 4.206045 33.908551 -3.020363
2011-05-23 15:54:52 51°11.178 2°42.146 15.1391 4.205631 33.909818 -3.020363
2011-05-23 15:55:52 51°11.162 2°42.156 15.1323 4.204698 33.914282 -3.020363
2011-05-23 15:56:52 51°11.147 2°42.168 15.1488 4.204698 33.913567 -3.020363
2011-05-23 15:57:52 51°11.141 2°42.185 15.1633 4.205527 33.90674 -3.020363
2011-05-23 15:58:52 51°11.114 2°42.093 15.1656 4.20646 33.908713 -3.020363
2011-05-23 15:59:52 51°11.103 2°42.033 15.158 4.206771 33.908656 -3.020363
2011-05-23 16:00:52 51°11.108 2°42.03 15.154 4.206149 33.909485 -3.020363
2011-05-23 16:01:52 51°11.118 2°42.048 15.1513 4.205942 33.911906 -3.020363
2011-05-23 16:02:52 51°11.129 2°42.072 15.1444 4.205424 33.914385 -3.020363
2011-05-23 16:03:52 51°11.139 2°42.097 15.1243 4.204905 33.916866 -3.020363
2011-05-23 16:04:52 51°11.13 2°42.117 15.1235 4.204076 33.919407 -3.020363
2011-05-23 16:05:52 51°11.091 2°42.233 15.1647 4.20418 33.916048 -3.020363
2011-05-23 16:06:52 51°11.098 2°42.537 15.1912 4.206356 33.902777 -3.020363
2011-05-23 16:07:52 51°11.157 2°42.909 15.2066 4.207911 33.901782 -3.020363
2011-05-23 16:08:52 51°11.221 2°43.281 15.2248 4.208948 33.894697 -3.020363
2011-05-23 16:09:52 51°11.277 2°43.66 15.232 4.209881 33.885263 -3.020363
2011-05-23 16:10:52 51°11.345 2°44.037 15.2237 4.209673 33.874846 -3.020363
2011-05-23 16:11:52 51°11.415 2°44.406 15.2298 4.208222 33.867492 -3.020363
2011-05-23 16:12:52 51°11.488 2°44.777 15.2356 4.2076 33.855489 -3.020363
2011-05-23 16:13:52 51°11.575 2°45.143 15.2205 4.20677 33.852303 -3.020363
2011-05-23 16:14:52 51°11.669 2°45.5 15.2243 4.205941 33.851253 -3.020363
2011-05-23 16:15:52 51°11.765 2°45.859 15.2533 4.20563 33.844895 -3.020363
2011-05-23 16:16:52 51°11.855 2°46.217 15.2748 4.206873 33.824068 -3.020363
2011-05-23 16:17:52 51°11.945 2°46.586 15.3195 4.207184 33.810523 -3.020363
2011-05-23 16:18:52 51°12.037 2°46.953 15.3565 4.208428 33.78764 -3.020363
2011-05-23 16:19:52 51°12.131 2°47.315 15.3152 4.209153 33.782813 -3.020363
2011-05-23 16:20:52 51°12.222 2°47.681 15.3837 4.207806 33.771434 -3.020363
2011-05-23 16:21:52 51°12.315 2°48.05 15.3784 4.210293 33.752707 -3.020363
2011-05-23 16:22:52 51°12.411 2°48.422 15.3901 4.209049 33.75287 -3.020363
2011-05-23 16:23:52 51°12.505 2°48.792 15.3746 4.208635 33.753396 -3.020363
2011-05-23 16:24:52 51°12.6 2°49.158 15.3472 4.206354 33.749218 -3.020363
2011-05-23 16:25:52 51°12.709 2°49.509 15.3448 4.204592 33.74615 -3.020363
2011-05-23 16:26:52 51°12.824 2°49.854 15.3375 4.204073 33.743624 -3.020363
2011-05-23 16:27:52 51°12.936 2°50.207 15.3357 4.202829 33.741666 -3.020363
2011-05-23 16:28:52 51°13.059 2°50.546 15.3415 4.200652 33.727796 -3.020363
2011-05-23 16:29:52 51°13.181 2°50.885 15.3611 4.19806 33.686169 -3.020363
2011-05-23 16:30:52 51°13.29 2°51.228 15.3771 4.194846 33.649596 -3.020363
2011-05-23 16:31:52 51°13.402 2°51.569 15.416 4.192046 33.600566 -3.020363
2011-05-23 16:32:52 51°13.522 2°51.907 15.4366 4.190387 33.557602 -3.020363
2011-05-23 16:33:52 51°13.636 2°52.256 15.5027 4.190387 33.533748 -3.020363
2011-05-23 16:34:52 51°13.759 2°52.594 15.5233 4.189142 33.477142 -3.020363
2011-05-23 16:35:52 51°13.876 2°52.936 15.523 4.187068 33.44537 -3.020363
2011-05-23 16:36:52 51°14.025 2°53.239 15.5334 4.184995 33.419201 -3.020363
2011-05-23 16:37:52 51°14.19 2°53.526 15.5211 4.184891 33.414792 -3.020363
2011-05-23 16:38:52 51°14.345 2°53.821 15.5155 4.185306 33.42825 -3.020363
2011-05-23 16:39:52 51°14.5 2°54.122 15.5327 4.185721 33.431253 -3.020363
2011-05-23 16:40:52 51°14.595 2°54.478 15.5222 4.186342 33.427737 -3.020363
2011-05-23 16:41:52 51°14.585 2°54.843 15.5078 4.184787 33.417352 -3.020363
2011-05-23 16:42:52 51°14.438 2°55.076 15.6147 4.179293 33.380182 -3.020363
2011-05-23 16:43:55 51°14.283 2°55.257 15.809 0.06677 0.400434 -3.020363
2011-05-23 16:44:56 51°14.154 2°55.389 15.897 0.052889 0.314786 -3.020363
2011-05-23 16:45:55 51°14.035 2°55.481 15.9829 0.049394 0.293331 -3.020363
2011-05-23 16:46:55 51°13.933 2°55.556 16.0721 0.046412 0.275076 -3.020363
2011-05-23 16:47:54 51°13.831 2°55.63 16.1532 0.043739 0.258762 -3.020363
2011-05-23 16:48:53 51°13.75 2°55.726 16.2088 0.041477 0.24499 -3.020363
2011-05-23 16:49:53 51°13.699 2°55.818 16.2729 0.039626 0.233804 -3.020363
2011-05-23 16:50:52 51°13.665 2°55.898 16.3154 0.227082 1.235821 -3.020363
2011-05-23 16:51:52 51°13.644 2°55.979 16.4644 0.079312 0.41299 -3.020363